sensor_id;sensor_type;location;lat;lon;timestamp;P1;durP1;ratioP1;P2;durP2;ratioP2
76107;SDS011;64834;52.516;10.528;2023-03-12T00:00:51;4.40;;;2.35;;
76107;SDS011;64834;52.516;10.528;2023-03-12T00:03:17;3.58;;;1.83;;
76107;SDS011;64834;52.516;10.528;2023-03-12T00:05:43;3.85;;;1.80;;
76107;SDS011;64834;52.516;10.528;2023-03-12T00:08:09;4.35;;;1.90;;
76107;SDS011;64834;52.516;10.528;2023-03-12T00:10:36;4.78;;;2.28;;
76107;SDS011;64834;52.516;10.528;2023-03-12T00:13:03;3.70;;;1.60;;
76107;SDS011;64834;52.516;10.528;2023-03-12T00:15:28;2.25;;;1.40;;
76107;SDS011;64834;52.516;10.528;2023-03-12T00:17:54;1.42;;;0.80;;
76107;SDS011;64834;52.516;10.528;2023-03-12T00:20:19;2.45;;;1.13;;
76107;SDS011;64834;52.516;10.528;2023-03-12T00:22:46;3.30;;;1.50;;
76107;SDS011;64834;52.516;10.528;2023-03-12T00:25:12;3.63;;;1.75;;
76107;SDS011;64834;52.516;10.528;2023-03-12T00:27:39;3.92;;;1.60;;
76107;SDS011;64834;52.516;10.528;2023-03-12T00:30:04;1.95;;;1.30;;
76107;SDS011;64834;52.516;10.528;2023-03-12T00:32:33;8.65;;;2.03;;
76107;SDS011;64834;52.516;10.528;2023-03-12T00:34:59;4.60;;;2.13;;
76107;SDS011;64834;52.516;10.528;2023-03-12T00:37:24;3.13;;;1.50;;
76107;SDS011;64834;52.516;10.528;2023-03-12T00:39:50;5.30;;;1.77;;
76107;SDS011;64834;52.516;10.528;2023-03-12T00:42:16;5.35;;;2.53;;
76107;SDS011;64834;52.516;10.528;2023-03-12T00:44:42;5.82;;;1.58;;
76107;SDS011;64834;52.516;10.528;2023-03-12T00:47:08;6.18;;;2.00;;
76107;SDS011;64834;52.516;10.528;2023-03-12T00:49:34;4.47;;;2.00;;
76107;SDS011;64834;52.516;10.528;2023-03-12T00:51:59;3.72;;;1.67;;
76107;SDS011;64834;52.516;10.528;2023-03-12T00:54:24;3.47;;;1.52;;
76107;SDS011;64834;52.516;10.528;2023-03-12T00:56:49;4.10;;;1.83;;
76107;SDS011;64834;52.516;10.528;2023-03-12T00:59:15;3.92;;;2.20;;
76107;SDS011;64834;52.516;10.528;2023-03-12T01:01:41;4.60;;;1.77;;
76107;SDS011;64834;52.516;10.528;2023-03-12T01:04:07;8.43;;;1.50;;
76107;SDS011;64834;52.516;10.528;2023-03-12T01:06:33;3.17;;;1.70;;
76107;SDS011;64834;52.516;10.528;2023-03-12T01:08:59;4.75;;;2.20;;
76107;SDS011;64834;52.516;10.528;2023-03-12T01:11:26;4.22;;;1.60;;
76107;SDS011;64834;52.516;10.528;2023-03-12T01:13:51;4.75;;;1.83;;
76107;SDS011;64834;52.516;10.528;2023-03-12T01:16:16;3.55;;;1.80;;
76107;SDS011;64834;52.516;10.528;2023-03-12T01:18:42;3.55;;;1.42;;
76107;SDS011;64834;52.516;10.528;2023-03-12T01:21:07;2.72;;;1.15;;
76107;SDS011;64834;52.516;10.528;2023-03-12T01:23:32;4.45;;;1.50;;
76107;SDS011;64834;52.516;10.528;2023-03-12T01:25:58;4.57;;;1.70;;
76107;SDS011;64834;52.516;10.528;2023-03-12T01:28:23;2.97;;;1.88;;
76107;SDS011;64834;52.516;10.528;2023-03-12T01:30:49;3.88;;;1.52;;
76107;SDS011;64834;52.516;10.528;2023-03-12T01:33:15;4.88;;;1.73;;
76107;SDS011;64834;52.516;10.528;2023-03-12T01:35:41;5.65;;;1.27;;
76107;SDS011;64834;52.516;10.528;2023-03-12T01:38:07;6.55;;;1.80;;
76107;SDS011;64834;52.516;10.528;2023-03-12T01:40:35;3.67;;;1.48;;
76107;SDS011;64834;52.516;10.528;2023-03-12T01:48:55;4.35;;;1.50;;
76107;SDS011;64834;52.516;10.528;2023-03-12T01:51:27;3.25;;;1.38;;
76107;SDS011;64834;52.516;10.528;2023-03-12T01:56:29;3.78;;;1.90;;
76107;SDS011;64834;52.516;10.528;2023-03-12T01:58:59;3.95;;;1.40;;
76107;SDS011;64834;52.516;10.528;2023-03-12T02:01:31;3.40;;;1.60;;
76107;SDS011;64834;52.516;10.528;2023-03-12T02:03:57;3.55;;;1.50;;
76107;SDS011;64834;52.516;10.528;2023-03-12T02:06:28;3.63;;;1.83;;
76107;SDS011;64834;52.516;10.528;2023-03-12T02:08:59;3.42;;;1.67;;
76107;SDS011;64834;52.516;10.528;2023-03-12T02:11:25;3.55;;;1.40;;
76107;SDS011;64834;52.516;10.528;2023-03-12T02:13:51;3.55;;;1.42;;
76107;SDS011;64834;52.516;10.528;2023-03-12T02:16:16;3.03;;;1.40;;
76107;SDS011;64834;52.516;10.528;2023-03-12T02:18:41;2.40;;;1.17;;
76107;SDS011;64834;52.516;10.528;2023-03-12T02:23:51;4.88;;;1.40;;
76107;SDS011;64834;52.516;10.528;2023-03-12T02:26:35;3.30;;;1.40;;
76107;SDS011;64834;52.516;10.528;2023-03-12T02:29:02;3.60;;;1.75;;
76107;SDS011;64834;52.516;10.528;2023-03-12T02:31:31;5.40;;;1.73;;
76107;SDS011;64834;52.516;10.528;2023-03-12T02:34:03;3.15;;;1.27;;
76107;SDS011;64834;52.516;10.528;2023-03-12T02:36:29;3.67;;;1.58;;
76107;SDS011;64834;52.516;10.528;2023-03-12T02:38:55;3.65;;;1.38;;
76107;SDS011;64834;52.516;10.528;2023-03-12T02:41:22;7.70;;;2.00;;
76107;SDS011;64834;52.516;10.528;2023-03-12T02:43:52;4.32;;;1.30;;
76107;SDS011;64834;52.516;10.528;2023-03-12T02:46:24;4.45;;;1.35;;
76107;SDS011;64834;52.516;10.528;2023-03-12T02:48:50;4.82;;;1.60;;
76107;SDS011;64834;52.516;10.528;2023-03-12T02:51:17;3.88;;;1.60;;
76107;SDS011;64834;52.516;10.528;2023-03-12T02:53:42;5.25;;;1.75;;
76107;SDS011;64834;52.516;10.528;2023-03-12T02:56:08;3.47;;;1.42;;
76107;SDS011;64834;52.516;10.528;2023-03-12T02:58:33;3.03;;;1.40;;
76107;SDS011;64834;52.516;10.528;2023-03-12T03:00:58;3.70;;;1.52;;
76107;SDS011;64834;52.516;10.528;2023-03-12T03:03:24;7.88;;;1.80;;
76107;SDS011;64834;52.516;10.528;2023-03-12T03:05:49;2.80;;;1.63;;
76107;SDS011;64834;52.516;10.528;2023-03-12T03:08:16;2.20;;;1.30;;
76107;SDS011;64834;52.516;10.528;2023-03-12T03:10:41;5.47;;;1.40;;
76107;SDS011;64834;52.516;10.528;2023-03-12T03:13:06;3.85;;;1.50;;
76107;SDS011;64834;52.516;10.528;2023-03-12T03:15:32;4.13;;;1.75;;
76107;SDS011;64834;52.516;10.528;2023-03-12T03:17:57;6.88;;;1.80;;
76107;SDS011;64834;52.516;10.528;2023-03-12T03:20:23;5.57;;;1.50;;
76107;SDS011;64834;52.516;10.528;2023-03-12T03:22:50;3.40;;;1.30;;
76107;SDS011;64834;52.516;10.528;2023-03-12T03:25:15;4.45;;;1.65;;
76107;SDS011;64834;52.516;10.528;2023-03-12T03:27:42;5.15;;;1.67;;
76107;SDS011;64834;52.516;10.528;2023-03-12T03:30:08;5.72;;;1.45;;
76107;SDS011;64834;52.516;10.528;2023-03-12T03:32:34;3.35;;;1.52;;
76107;SDS011;64834;52.516;10.528;2023-03-12T03:34:59;3.88;;;1.20;;
76107;SDS011;64834;52.516;10.528;2023-03-12T03:37:24;3.55;;;1.55;;
76107;SDS011;64834;52.516;10.528;2023-03-12T03:39:50;4.68;;;1.55;;
76107;SDS011;64834;52.516;10.528;2023-03-12T03:42:15;4.30;;;1.75;;
76107;SDS011;64834;52.516;10.528;2023-03-12T03:44:40;3.63;;;1.63;;
76107;SDS011;64834;52.516;10.528;2023-03-12T03:47:06;3.35;;;1.80;;
76107;SDS011;64834;52.516;10.528;2023-03-12T03:49:31;3.38;;;1.65;;
76107;SDS011;64834;52.516;10.528;2023-03-12T03:51:56;3.55;;;1.88;;
76107;SDS011;64834;52.516;10.528;2023-03-12T03:54:22;3.97;;;1.60;;
76107;SDS011;64834;52.516;10.528;2023-03-12T03:56:47;3.80;;;1.60;;
76107;SDS011;64834;52.516;10.528;2023-03-12T03:59:13;2.50;;;1.50;;
76107;SDS011;64834;52.516;10.528;2023-03-12T04:01:38;3.47;;;1.63;;
76107;SDS011;64834;52.516;10.528;2023-03-12T04:04:04;4.68;;;1.92;;
76107;SDS011;64834;52.516;10.528;2023-03-12T04:06:29;2.53;;;1.67;;
76107;SDS011;64834;52.516;10.528;2023-03-12T04:08:55;4.57;;;1.90;;
76107;SDS011;64834;52.516;10.528;2023-03-12T04:11:21;3.28;;;1.95;;
76107;SDS011;64834;52.516;10.528;2023-03-12T04:13:47;4.70;;;2.08;;
76107;SDS011;64834;52.516;10.528;2023-03-12T04:16:13;3.22;;;1.42;;
76107;SDS011;64834;52.516;10.528;2023-03-12T04:18:39;4.15;;;1.75;;
76107;SDS011;64834;52.516;10.528;2023-03-12T04:21:05;3.28;;;1.88;;
76107;SDS011;64834;52.516;10.528;2023-03-12T04:23:32;4.00;;;1.58;;
76107;SDS011;64834;52.516;10.528;2023-03-12T04:25:57;2.83;;;1.67;;
76107;SDS011;64834;52.516;10.528;2023-03-12T04:28:23;6.43;;;1.80;;
76107;SDS011;64834;52.516;10.528;2023-03-12T04:30:55;5.03;;;2.65;;
76107;SDS011;64834;52.516;10.528;2023-03-12T04:33:24;3.05;;;1.63;;
76107;SDS011;64834;52.516;10.528;2023-03-12T04:35:51;5.88;;;2.03;;
76107;SDS011;64834;52.516;10.528;2023-03-12T04:38:17;3.90;;;1.80;;
76107;SDS011;64834;52.516;10.528;2023-03-12T04:40:44;4.88;;;1.90;;
76107;SDS011;64834;52.516;10.528;2023-03-12T04:43:09;3.60;;;1.45;;
76107;SDS011;64834;52.516;10.528;2023-03-12T04:45:34;3.10;;;1.75;;
76107;SDS011;64834;52.516;10.528;2023-03-12T04:47:59;3.20;;;1.58;;
76107;SDS011;64834;52.516;10.528;2023-03-12T04:50:25;3.95;;;1.48;;
76107;SDS011;64834;52.516;10.528;2023-03-12T04:52:50;3.90;;;1.52;;
76107;SDS011;64834;52.516;10.528;2023-03-12T04:55:15;4.85;;;2.08;;
76107;SDS011;64834;52.516;10.528;2023-03-12T04:57:41;4.57;;;2.22;;
76107;SDS011;64834;52.516;10.528;2023-03-12T05:00:06;3.85;;;1.60;;
76107;SDS011;64834;52.516;10.528;2023-03-12T05:02:37;5.03;;;2.10;;
76107;SDS011;64834;52.516;10.528;2023-03-12T05:05:03;3.92;;;2.10;;
76107;SDS011;64834;52.516;10.528;2023-03-12T05:07:29;3.47;;;1.65;;
76107;SDS011;64834;52.516;10.528;2023-03-12T05:09:54;4.63;;;1.85;;
76107;SDS011;64834;52.516;10.528;2023-03-12T05:12:20;3.28;;;2.10;;
76107;SDS011;64834;52.516;10.528;2023-03-12T05:14:45;4.90;;;2.42;;
76107;SDS011;64834;52.516;10.528;2023-03-12T05:17:10;3.33;;;1.70;;
76107;SDS011;64834;52.516;10.528;2023-03-12T05:19:35;3.00;;;1.90;;
76107;SDS011;64834;52.516;10.528;2023-03-12T05:22:01;2.47;;;1.65;;
76107;SDS011;64834;52.516;10.528;2023-03-12T05:24:26;3.40;;;1.70;;
76107;SDS011;64834;52.516;10.528;2023-03-12T05:26:52;4.63;;;1.83;;
76107;SDS011;64834;52.516;10.528;2023-03-12T05:29:17;4.57;;;2.13;;
76107;SDS011;64834;52.516;10.528;2023-03-12T05:31:43;3.63;;;1.88;;
76107;SDS011;64834;52.516;10.528;2023-03-12T05:34:10;3.63;;;1.52;;
76107;SDS011;64834;52.516;10.528;2023-03-12T05:36:36;5.25;;;1.80;;
76107;SDS011;64834;52.516;10.528;2023-03-12T05:39:02;4.22;;;1.90;;
76107;SDS011;64834;52.516;10.528;2023-03-12T05:41:28;4.50;;;1.63;;
76107;SDS011;64834;52.516;10.528;2023-03-12T05:43:54;3.78;;;1.75;;
76107;SDS011;64834;52.516;10.528;2023-03-12T05:46:23;6.38;;;1.85;;
76107;SDS011;64834;52.516;10.528;2023-03-12T05:48:50;4.60;;;1.60;;
76107;SDS011;64834;52.516;10.528;2023-03-12T05:51:16;6.40;;;2.15;;
76107;SDS011;64834;52.516;10.528;2023-03-12T05:53:41;3.30;;;2.13;;
76107;SDS011;64834;52.516;10.528;2023-03-12T05:56:07;6.63;;;2.15;;
76107;SDS011;64834;52.516;10.528;2023-03-12T05:58:35;4.43;;;2.40;;
76107;SDS011;64834;52.516;10.528;2023-03-12T06:01:02;6.15;;;2.30;;
76107;SDS011;64834;52.516;10.528;2023-03-12T06:03:28;5.20;;;2.22;;
76107;SDS011;64834;52.516;10.528;2023-03-12T06:05:54;6.18;;;2.65;;
76107;SDS011;64834;52.516;10.528;2023-03-12T06:08:20;4.03;;;2.17;;
76107;SDS011;64834;52.516;10.528;2023-03-12T06:10:48;20.35;;;7.38;;
76107;SDS011;64834;52.516;10.528;2023-03-12T06:13:16;11.90;;;5.00;;
76107;SDS011;64834;52.516;10.528;2023-03-12T06:15:41;7.00;;;3.25;;
76107;SDS011;64834;52.516;10.528;2023-03-12T06:18:06;6.45;;;2.75;;
76107;SDS011;64834;52.516;10.528;2023-03-12T06:20:32;4.45;;;2.17;;
76107;SDS011;64834;52.516;10.528;2023-03-12T06:22:57;6.45;;;2.45;;
76107;SDS011;64834;52.516;10.528;2023-03-12T06:25:22;6.15;;;3.05;;
76107;SDS011;64834;52.516;10.528;2023-03-12T06:27:48;6.93;;;3.88;;
76107;SDS011;64834;52.516;10.528;2023-03-12T06:30:13;10.80;;;4.75;;
76107;SDS011;64834;52.516;10.528;2023-03-12T06:32:39;10.15;;;5.22;;
76107;SDS011;64834;52.516;10.528;2023-03-12T06:35:04;12.52;;;5.80;;
76107;SDS011;64834;52.516;10.528;2023-03-12T06:37:30;6.60;;;3.83;;
76107;SDS011;64834;52.516;10.528;2023-03-12T06:39:55;8.00;;;3.35;;
76107;SDS011;64834;52.516;10.528;2023-03-12T06:42:21;7.57;;;3.20;;
76107;SDS011;64834;52.516;10.528;2023-03-12T06:44:46;6.35;;;2.80;;
76107;SDS011;64834;52.516;10.528;2023-03-12T06:47:12;6.93;;;2.70;;
76107;SDS011;64834;52.516;10.528;2023-03-12T06:49:37;5.97;;;2.65;;
76107;SDS011;64834;52.516;10.528;2023-03-12T06:52:03;5.20;;;2.00;;
76107;SDS011;64834;52.516;10.528;2023-03-12T06:54:29;7.63;;;2.22;;
76107;SDS011;64834;52.516;10.528;2023-03-12T06:56:54;5.80;;;2.72;;
76107;SDS011;64834;52.516;10.528;2023-03-12T06:59:19;5.25;;;2.40;;
76107;SDS011;64834;52.516;10.528;2023-03-12T07:01:46;6.65;;;2.47;;
76107;SDS011;64834;52.516;10.528;2023-03-12T07:04:12;4.70;;;2.40;;
76107;SDS011;64834;52.516;10.528;2023-03-12T07:06:38;7.68;;;2.60;;
76107;SDS011;64834;52.516;10.528;2023-03-12T07:09:03;7.55;;;3.10;;
76107;SDS011;64834;52.516;10.528;2023-03-12T07:11:29;6.43;;;2.83;;
76107;SDS011;64834;52.516;10.528;2023-03-12T07:13:55;5.78;;;2.67;;
76107;SDS011;64834;52.516;10.528;2023-03-12T07:16:21;7.07;;;3.15;;
76107;SDS011;64834;52.516;10.528;2023-03-12T07:18:46;7.60;;;3.55;;
76107;SDS011;64834;52.516;10.528;2023-03-12T07:21:12;4.88;;;2.85;;
76107;SDS011;64834;52.516;10.528;2023-03-12T07:23:37;6.35;;;3.10;;
76107;SDS011;64834;52.516;10.528;2023-03-12T07:26:03;5.75;;;2.83;;
76107;SDS011;64834;52.516;10.528;2023-03-12T07:28:29;5.43;;;3.20;;
76107;SDS011;64834;52.516;10.528;2023-03-12T07:30:59;8.98;;;3.10;;
76107;SDS011;64834;52.516;10.528;2023-03-12T07:33:25;5.22;;;2.58;;
76107;SDS011;64834;52.516;10.528;2023-03-12T07:35:50;4.97;;;2.45;;
76107;SDS011;64834;52.516;10.528;2023-03-12T07:38:16;6.00;;;3.22;;
76107;SDS011;64834;52.516;10.528;2023-03-12T07:40:41;5.47;;;2.78;;
76107;SDS011;64834;52.516;10.528;2023-03-12T07:43:06;4.43;;;2.40;;
76107;SDS011;64834;52.516;10.528;2023-03-12T07:45:35;6.82;;;2.38;;
76107;SDS011;64834;52.516;10.528;2023-03-12T07:48:02;4.38;;;2.00;;
76107;SDS011;64834;52.516;10.528;2023-03-12T07:50:27;4.50;;;2.40;;
76107;SDS011;64834;52.516;10.528;2023-03-12T07:52:53;4.53;;;2.42;;
76107;SDS011;64834;52.516;10.528;2023-03-12T07:55:18;4.82;;;2.45;;
76107;SDS011;64834;52.516;10.528;2023-03-12T07:57:43;5.20;;;2.65;;
76107;SDS011;64834;52.516;10.528;2023-03-12T08:00:09;4.80;;;2.10;;
76107;SDS011;64834;52.516;10.528;2023-03-12T08:02:35;3.70;;;2.20;;
76107;SDS011;64834;52.516;10.528;2023-03-12T08:05:00;6.32;;;2.53;;
76107;SDS011;64834;52.516;10.528;2023-03-12T08:07:26;3.78;;;1.88;;
76107;SDS011;64834;52.516;10.528;2023-03-12T08:09:56;4.63;;;2.40;;
76107;SDS011;64834;52.516;10.528;2023-03-12T08:12:24;4.80;;;2.05;;
76107;SDS011;64834;52.516;10.528;2023-03-12T08:14:50;5.68;;;2.13;;
76107;SDS011;64834;52.516;10.528;2023-03-12T08:17:15;5.20;;;1.77;;
76107;SDS011;64834;52.516;10.528;2023-03-12T08:19:40;3.90;;;2.75;;
76107;SDS011;64834;52.516;10.528;2023-03-12T08:22:06;5.57;;;3.08;;
76107;SDS011;64834;52.516;10.528;2023-03-12T08:24:32;3.53;;;2.28;;
76107;SDS011;64834;52.516;10.528;2023-03-12T08:26:57;4.70;;;2.58;;
76107;SDS011;64834;52.516;10.528;2023-03-12T08:29:22;4.28;;;2.28;;
76107;SDS011;64834;52.516;10.528;2023-03-12T08:31:48;5.75;;;2.45;;
76107;SDS011;64834;52.516;10.528;2023-03-12T08:34:13;7.47;;;2.70;;
76107;SDS011;64834;52.516;10.528;2023-03-12T08:36:38;6.40;;;2.70;;
76107;SDS011;64834;52.516;10.528;2023-03-12T08:39:04;4.60;;;2.70;;
76107;SDS011;64834;52.516;10.528;2023-03-12T08:41:29;4.45;;;2.45;;
76107;SDS011;64834;52.516;10.528;2023-03-12T08:43:54;5.35;;;2.67;;
76107;SDS011;64834;52.516;10.528;2023-03-12T08:46:20;5.22;;;2.13;;
76107;SDS011;64834;52.516;10.528;2023-03-12T08:48:45;4.00;;;1.95;;
76107;SDS011;64834;52.516;10.528;2023-03-12T08:51:11;4.32;;;2.00;;
76107;SDS011;64834;52.516;10.528;2023-03-12T08:53:36;4.80;;;2.03;;
76107;SDS011;64834;52.516;10.528;2023-03-12T08:56:01;5.55;;;1.77;;
76107;SDS011;64834;52.516;10.528;2023-03-12T08:58:28;3.22;;;1.80;;
76107;SDS011;64834;52.516;10.528;2023-03-12T09:00:54;4.20;;;1.85;;
76107;SDS011;64834;52.516;10.528;2023-03-12T09:03:20;3.13;;;2.08;;
76107;SDS011;64834;52.516;10.528;2023-03-12T09:05:47;3.30;;;1.27;;
76107;SDS011;64834;52.516;10.528;2023-03-12T09:08:13;7.00;;;2.40;;
76107;SDS011;64834;52.516;10.528;2023-03-12T09:10:39;4.57;;;1.85;;
76107;SDS011;64834;52.516;10.528;2023-03-12T09:13:05;3.55;;;1.30;;
76107;SDS011;64834;52.516;10.528;2023-03-12T09:15:31;3.78;;;1.50;;
76107;SDS011;64834;52.516;10.528;2023-03-12T09:17:57;4.85;;;1.58;;
76107;SDS011;64834;52.516;10.528;2023-03-12T09:20:23;2.40;;;1.52;;
76107;SDS011;64834;52.516;10.528;2023-03-12T09:22:49;3.08;;;1.20;;
76107;SDS011;64834;52.516;10.528;2023-03-12T09:25:15;3.58;;;1.27;;
76107;SDS011;64834;52.516;10.528;2023-03-12T09:27:42;2.15;;;1.33;;
76107;SDS011;64834;52.516;10.528;2023-03-12T09:30:16;4.25;;;1.40;;
76107;SDS011;64834;52.516;10.528;2023-03-12T09:32:44;4.45;;;1.65;;
76107;SDS011;64834;52.516;10.528;2023-03-12T09:35:10;3.65;;;1.20;;
76107;SDS011;64834;52.516;10.528;2023-03-12T09:37:37;4.97;;;2.00;;
76107;SDS011;64834;52.516;10.528;2023-03-12T09:40:02;3.03;;;1.23;;
76107;SDS011;64834;52.516;10.528;2023-03-12T09:42:42;3.72;;;1.50;;
76107;SDS011;64834;52.516;10.528;2023-03-12T09:45:17;5.13;;;1.40;;
76107;SDS011;64834;52.516;10.528;2023-03-12T09:47:50;3.08;;;1.40;;
76107;SDS011;64834;52.516;10.528;2023-03-12T09:50:21;6.13;;;2.35;;
76107;SDS011;64834;52.516;10.528;2023-03-12T09:55:34;2.80;;;1.48;;
76107;SDS011;64834;52.516;10.528;2023-03-12T09:58:03;6.03;;;2.08;;
76107;SDS011;64834;52.516;10.528;2023-03-12T10:00:29;3.20;;;1.42;;
76107;SDS011;64834;52.516;10.528;2023-03-12T10:03:04;3.63;;;1.60;;
76107;SDS011;64834;52.516;10.528;2023-03-12T10:05:35;3.58;;;1.10;;
76107;SDS011;64834;52.516;10.528;2023-03-12T10:08:19;3.63;;;1.45;;
76107;SDS011;64834;52.516;10.528;2023-03-12T10:19:26;3.70;;;1.25;;
76107;SDS011;64834;52.516;10.528;2023-03-12T10:22:28;1.60;;;0.90;;
76107;SDS011;64834;52.516;10.528;2023-03-12T10:25:11;2.08;;;1.48;;
76107;SDS011;64834;52.516;10.528;2023-03-12T10:27:44;4.88;;;1.48;;
76107;SDS011;64834;52.516;10.528;2023-03-12T10:30:16;2.15;;;0.98;;
76107;SDS011;64834;52.516;10.528;2023-03-12T10:32:46;4.90;;;1.40;;
76107;SDS011;64834;52.516;10.528;2023-03-12T10:35:16;2.35;;;1.00;;
76107;SDS011;64834;52.516;10.528;2023-03-12T10:37:51;2.03;;;1.00;;
76107;SDS011;64834;52.516;10.528;2023-03-12T10:40:23;3.13;;;1.08;;
76107;SDS011;64834;52.516;10.528;2023-03-12T10:42:50;4.05;;;1.23;;
76107;SDS011;64834;52.516;10.528;2023-03-12T10:48:03;3.00;;;1.20;;
76107;SDS011;64834;52.516;10.528;2023-03-12T10:50:32;3.85;;;1.35;;
76107;SDS011;64834;52.516;10.528;2023-03-12T10:55:59;3.13;;;1.30;;
76107;SDS011;64834;52.516;10.528;2023-03-12T10:58:39;3.97;;;1.52;;
76107;SDS011;64834;52.516;10.528;2023-03-12T11:01:27;4.15;;;1.60;;
76107;SDS011;64834;52.516;10.528;2023-03-12T11:06:37;3.60;;;1.88;;
76107;SDS011;64834;52.516;10.528;2023-03-12T11:11:39;3.03;;;1.48;;
76107;SDS011;64834;52.516;10.528;2023-03-12T11:14:24;2.63;;;1.48;;
76107;SDS011;64834;52.516;10.528;2023-03-12T11:16:53;3.25;;;1.52;;
76107;SDS011;64834;52.516;10.528;2023-03-12T11:19:30;3.15;;;1.27;;
76107;SDS011;64834;52.516;10.528;2023-03-12T11:22:01;4.15;;;1.25;;
76107;SDS011;64834;52.516;10.528;2023-03-12T11:24:32;3.85;;;1.67;;
76107;SDS011;64834;52.516;10.528;2023-03-12T11:26:58;3.35;;;2.30;;
76107;SDS011;64834;52.516;10.528;2023-03-12T11:34:48;4.13;;;1.50;;
76107;SDS011;64834;52.516;10.528;2023-03-12T11:37:30;5.10;;;2.38;;
76107;SDS011;64834;52.516;10.528;2023-03-12T11:40:17;4.80;;;2.33;;
76107;SDS011;64834;52.516;10.528;2023-03-12T11:49:00;1.70;;;0.88;;
76107;SDS011;64834;52.516;10.528;2023-03-12T11:51:31;2.03;;;1.17;;
76107;SDS011;64834;52.516;10.528;2023-03-12T11:54:14;1.90;;;0.98;;
76107;SDS011;64834;52.516;10.528;2023-03-12T11:56:53;2.80;;;1.15;;
76107;SDS011;64834;52.516;10.528;2023-03-12T12:13:59;1.65;;;0.65;;
76107;SDS011;64834;52.516;10.528;2023-03-12T12:16:48;3.28;;;0.60;;
76107;SDS011;64834;52.516;10.528;2023-03-12T12:19:38;5.45;;;0.75;;
76107;SDS011;64834;52.516;10.528;2023-03-12T12:22:10;2.28;;;0.75;;
76107;SDS011;64834;52.516;10.528;2023-03-12T12:27:23;4.18;;;1.27;;
76107;SDS011;64834;52.516;10.528;2023-03-12T12:35:41;1.15;;;0.63;;
76107;SDS011;64834;52.516;10.528;2023-03-12T12:41:14;1.70;;;0.70;;
76107;SDS011;64834;52.516;10.528;2023-03-12T12:46:25;2.20;;;1.02;;
76107;SDS011;64834;52.516;10.528;2023-03-12T12:49:40;2.00;;;0.90;;
76107;SDS011;64834;52.516;10.528;2023-03-12T12:51:47;2.92;;;1.10;;
76107;SDS011;64834;52.516;10.528;2023-03-12T12:57:05;1.95;;;1.30;;
76107;SDS011;64834;52.516;10.528;2023-03-12T13:02:37;3.28;;;1.30;;
76107;SDS011;64834;52.516;10.528;2023-03-12T13:05:16;2.58;;;1.10;;
76107;SDS011;64834;52.516;10.528;2023-03-12T13:08:00;3.00;;;1.42;;
76107;SDS011;64834;52.516;10.528;2023-03-12T13:13:18;5.28;;;2.63;;
76107;SDS011;64834;52.516;10.528;2023-03-12T13:15:45;3.95;;;2.58;;
76107;SDS011;64834;52.516;10.528;2023-03-12T13:18:24;4.50;;;1.85;;
76107;SDS011;64834;52.516;10.528;2023-03-12T13:26:26;3.55;;;1.67;;
76107;SDS011;64834;52.516;10.528;2023-03-12T13:33:57;3.20;;;1.95;;
76107;SDS011;64834;52.516;10.528;2023-03-12T13:36:24;3.92;;;2.05;;
76107;SDS011;64834;52.516;10.528;2023-03-12T13:38:54;3.95;;;1.45;;
76107;SDS011;64834;52.516;10.528;2023-03-12T13:41:36;4.68;;;2.50;;
76107;SDS011;64834;52.516;10.528;2023-03-12T13:46:47;6.22;;;2.00;;
76107;SDS011;64834;52.516;10.528;2023-03-12T13:49:35;5.47;;;2.50;;
76107;SDS011;64834;52.516;10.528;2023-03-12T13:57:28;6.05;;;3.72;;
76107;SDS011;64834;52.516;10.528;2023-03-12T13:59:56;5.72;;;3.90;;
76107;SDS011;64834;52.516;10.528;2023-03-12T14:02:30;6.43;;;3.65;;
76107;SDS011;64834;52.516;10.528;2023-03-12T14:05:05;5.85;;;2.83;;
76107;SDS011;64834;52.516;10.528;2023-03-12T14:10:27;5.63;;;3.00;;
76107;SDS011;64834;52.516;10.528;2023-03-12T14:15:39;5.75;;;2.60;;
76107;SDS011;64834;52.516;10.528;2023-03-12T14:18:14;6.05;;;2.78;;
76107;SDS011;64834;52.516;10.528;2023-03-12T14:20:48;4.70;;;3.00;;
76107;SDS011;64834;52.516;10.528;2023-03-12T14:23:28;4.45;;;3.53;;
76107;SDS011;64834;52.516;10.528;2023-03-12T14:26:02;10.82;;;7.15;;
76107;SDS011;64834;52.516;10.528;2023-03-12T14:28:28;8.68;;;6.50;;
76107;SDS011;64834;52.516;10.528;2023-03-12T14:31:03;7.93;;;4.72;;
76107;SDS011;64834;52.516;10.528;2023-03-12T14:33:35;14.55;;;7.13;;
76107;SDS011;64834;52.516;10.528;2023-03-12T14:36:15;25.73;;;12.55;;
76107;SDS011;64834;52.516;10.528;2023-03-12T14:38:45;9.02;;;6.20;;
76107;SDS011;64834;52.516;10.528;2023-03-12T14:43:43;5.53;;;3.38;;
76107;SDS011;64834;52.516;10.528;2023-03-12T14:46:17;9.90;;;3.95;;
76107;SDS011;64834;52.516;10.528;2023-03-12T14:48:46;6.05;;;3.85;;
76107;SDS011;64834;52.516;10.528;2023-03-12T14:51:17;6.50;;;4.85;;
76107;SDS011;64834;52.516;10.528;2023-03-12T14:53:45;5.25;;;3.80;;
76107;SDS011;64834;52.516;10.528;2023-03-12T14:56:19;6.10;;;4.07;;
76107;SDS011;64834;52.516;10.528;2023-03-12T14:58:48;6.18;;;4.18;;
76107;SDS011;64834;52.516;10.528;2023-03-12T15:01:30;6.85;;;3.83;;
76107;SDS011;64834;52.516;10.528;2023-03-12T15:03:58;6.35;;;3.67;;
76107;SDS011;64834;52.516;10.528;2023-03-12T15:08:50;8.60;;;4.57;;
76107;SDS011;64834;52.516;10.528;2023-03-12T15:11:19;6.40;;;3.67;;
76107;SDS011;64834;52.516;10.528;2023-03-12T15:13:46;6.18;;;4.28;;
76107;SDS011;64834;52.516;10.528;2023-03-12T15:16:11;7.70;;;4.80;;
76107;SDS011;64834;52.516;10.528;2023-03-12T15:18:37;7.95;;;4.97;;
76107;SDS011;64834;52.516;10.528;2023-03-12T15:21:03;6.25;;;4.53;;
76107;SDS011;64834;52.516;10.528;2023-03-12T15:23:29;7.18;;;4.45;;
76107;SDS011;64834;52.516;10.528;2023-03-12T15:26:08;9.38;;;4.65;;
76107;SDS011;64834;52.516;10.528;2023-03-12T15:28:44;5.95;;;4.57;;
76107;SDS011;64834;52.516;10.528;2023-03-12T15:31:19;8.77;;;4.22;;
76107;SDS011;64834;52.516;10.528;2023-03-12T15:33:44;5.50;;;4.10;;
76107;SDS011;64834;52.516;10.528;2023-03-12T15:36:27;6.28;;;4.20;;
76107;SDS011;64834;52.516;10.528;2023-03-12T15:38:58;14.25;;;8.23;;
76107;SDS011;64834;52.516;10.528;2023-03-12T15:41:31;7.63;;;5.03;;
76107;SDS011;64834;52.516;10.528;2023-03-12T15:44:04;6.32;;;4.50;;
76107;SDS011;64834;52.516;10.528;2023-03-12T15:46:29;10.38;;;5.28;;
76107;SDS011;64834;52.516;10.528;2023-03-12T15:48:55;10.20;;;5.20;;
76107;SDS011;64834;52.516;10.528;2023-03-12T15:51:31;8.18;;;6.35;;
76107;SDS011;64834;52.516;10.528;2023-03-12T15:56:41;6.35;;;4.80;;
76107;SDS011;64834;52.516;10.528;2023-03-12T16:01:59;7.88;;;4.97;;
76107;SDS011;64834;52.516;10.528;2023-03-12T16:04:24;8.02;;;5.38;;
76107;SDS011;64834;52.516;10.528;2023-03-12T16:06:50;10.73;;;6.45;;
76107;SDS011;64834;52.516;10.528;2023-03-12T16:09:18;8.60;;;5.07;;
76107;SDS011;64834;52.516;10.528;2023-03-12T16:11:48;9.27;;;5.15;;
76107;SDS011;64834;52.516;10.528;2023-03-12T16:14:16;7.70;;;5.25;;
76107;SDS011;64834;52.516;10.528;2023-03-12T16:16:44;8.13;;;5.10;;
76107;SDS011;64834;52.516;10.528;2023-03-12T16:19:12;6.63;;;4.78;;
76107;SDS011;64834;52.516;10.528;2023-03-12T16:21:39;6.93;;;4.70;;
76107;SDS011;64834;52.516;10.528;2023-03-12T16:24:05;9.68;;;5.55;;
76107;SDS011;64834;52.516;10.528;2023-03-12T16:26:32;6.40;;;4.47;;
76107;SDS011;64834;52.516;10.528;2023-03-12T16:28:59;7.80;;;5.30;;
76107;SDS011;64834;52.516;10.528;2023-03-12T16:31:24;9.23;;;4.85;;
76107;SDS011;64834;52.516;10.528;2023-03-12T16:33:50;9.73;;;4.88;;
76107;SDS011;64834;52.516;10.528;2023-03-12T16:36:16;7.43;;;4.30;;